Time;durP1;ratioP1;P1;durP2;ratioP2;P2;SDS_P1;SDS_P2;PMS_P1;PMS_P2;Temp;Humidity;BMP_temperature;BMP_pressure;BME280_temperature;BME280_humidity;BME280_pressure;Samples;Min_cycle;Max_cycle;Signal;HPM_P1;HPM_P2
2022/12/23 00:00:04;;;;;;;0.50;0.50;;;;;;;7.82;100.00;95855.56;29395;217;63004;-56
2022/12/23 00:00:35;;;;;;;0.50;0.50;;;;;;;7.83;100.00;95861.78;29395;248;63009;-58
2022/12/23 00:01:07;;;;;;;0.50;0.50;;;;;;;7.78;100.00;95862.66;29395;232;63005;-58
2022/12/23 00:01:39;;;;;;;0.50;0.50;;;;;;;7.74;100.00;95865.16;29395;204;63009;-67
2022/12/23 00:02:11;;;;;;;0.50;0.50;;;;;;;7.77;100.00;95866.47;29395;202;63005;-68
2022/12/23 00:02:46;;;;;;;0.50;0.50;;;;;;;7.76;100.00;95864.88;29395;219;63009;-59
2022/12/23 00:03:17;;;;;;;0.50;0.50;;;;;;;7.81;100.00;95870.19;29395;197;63005;-58
2022/12/23 00:03:50;;;;;;;0.55;0.55;;;;;;;7.82;100.00;95871.78;29394;220;64013;-72
2022/12/23 00:04:25;;;;;;;0.50;0.50;;;;;;;7.81;100.00;95875.56;29395;215;63004;-57
2022/12/23 00:04:56;;;;;;;0.60;0.60;;;;;;;7.83;100.00;95876.06;29395;225;63009;-59
2022/12/23 00:05:28;;;;;;;0.50;0.50;;;;;;;7.85;100.00;95862.28;29395;208;63004;-57
2022/12/23 00:06:06;;;;;;;0.60;0.60;;;;;;;7.84;100.00;95868.78;29395;230;63009;-59
2022/12/23 00:06:38;;;;;;;0.50;0.50;;;;;;;7.82;100.00;95865.56;29394;221;64008;-56
2022/12/23 00:07:12;;;;;;;0.50;0.50;;;;;;;7.83;100.00;95859.88;29395;243;63008;-63
2022/12/23 00:07:44;;;;;;;0.50;0.50;;;;;;;7.84;100.00;95864.19;29395;207;63005;-58
2022/12/23 00:08:16;;;;;;;0.50;0.50;;;;;;;7.84;100.00;95869.56;29395;211;63009;-58
2022/12/23 00:08:48;;;;;;;0.50;0.50;;;;;;;7.82;100.00;95869.06;29394;212;64009;-58
2022/12/23 00:09:19;;;;;;;0.50;0.50;;;;;;;7.80;100.00;95871.28;29395;204;63009;-58
2022/12/23 00:09:51;;;;;;;0.60;0.60;;;;;;;7.81;100.00;95880.97;29394;228;64009;-56
2022/12/23 00:10:22;;;;;;;0.50;0.50;;;;;;;7.78;100.00;95868.06;29395;264;63009;-57
2022/12/23 00:10:56;;;;;;;0.60;0.60;;;;;;;7.78;100.00;95876.16;29395;216;63005;-64
2022/12/23 00:11:31;;;;;;;0.47;0.47;;;;;;;7.82;100.00;95868.28;29395;203;63009;-73
2022/12/23 00:15:24;;;;;;;0.50;0.50;;;;;;;7.80;100.00;95873.97;29439;228;63005;-57
2022/12/23 00:16:12;;;;;;;0.60;0.60;;;;;;;7.79;100.00;95875.06;29373;257;63009;-58
2022/12/23 00:16:45;;;;;;;0.40;0.40;;;;;;;7.76;100.00;95867.56;29395;198;63005;-57
2022/12/23 00:17:16;;;;;;;1.05;1.05;;;;;;;7.78;100.00;95873.47;29394;246;64013;-59
2022/12/23 00:17:47;;;;;;;0.50;0.50;;;;;;;7.79;100.00;95883.16;29395;214;63005;-57
2022/12/23 00:18:18;;;;;;;0.50;0.50;;;;;;;7.77;100.00;95877.28;29395;248;63009;-64
2022/12/23 00:18:51;;;;;;;0.50;0.50;;;;;;;7.73;100.00;95879.75;29395;276;63010;-58
2022/12/23 00:19:22;;;;;;;0.50;0.50;;;;;;;7.74;100.00;95869.75;29395;202;63010;-57
2022/12/23 00:19:54;;;;;;;0.50;0.50;;;;;;;7.72;100.00;95875.47;29395;208;63004;-57
2022/12/23 00:20:26;;;;;;;0.60;0.60;;;;;;;7.73;100.00;95874.38;29395;205;63019;-56
2022/12/23 00:21:00;;;;;;;0.50;0.50;;;;;;;7.76;100.00;95864.06;29395;199;63004;-58
2022/12/23 00:21:32;;;;;;;0.60;0.60;;;;;;;7.76;100.00;95878.37;29395;236;63008;-57
2022/12/23 00:22:04;;;;;;;0.50;0.50;;;;;;;7.77;100.00;95874.56;29394;239;64008;-56
2022/12/23 00:23:24;;;;;;;0.50;0.50;;;;;;;7.76;100.00;95867.56;29395;212;63005;-57
2022/12/23 00:23:55;;;;;;;0.60;0.60;;;;;;;7.80;100.00;95873.97;29395;208;63009;-70
2022/12/23 00:24:27;;;;;;;0.40;0.40;;;;;;;7.78;100.00;95870.78;29395;229;63005;-57
2022/12/23 00:24:58;;;;;;;0.50;0.50;;;;;;;7.76;100.00;95866.75;29395;222;63009;-56
2022/12/23 00:25:39;;;;;;;0.50;0.50;;;;;;;7.73;100.00;95874.38;29395;238;63010;-56
2022/12/23 00:26:16;;;;;;;0.50;0.50;;;;;;;7.71;100.00;95864.97;29395;222;63009;-67
2022/12/23 00:26:47;;;;;;;0.55;0.55;;;;;;;7.71;100.00;95864.97;29395;283;63004;-56
2022/12/23 00:27:19;;;;;;;0.60;0.60;;;;;;;7.71;100.00;95873.06;29394;202;64013;-58
2022/12/23 00:28:00;;;;;;;0.50;0.50;;;;;;;7.82;100.00;95865.56;29395;226;63004;-57
2022/12/23 00:28:32;;;;;;;0.60;0.60;;;;;;;7.85;100.00;95865.78;29417;215;63009;-58
2022/12/23 00:29:03;;;;;;;0.50;0.50;;;;;;;7.88;100.00;95867.88;29395;218;63004;-56
2022/12/23 00:29:35;;;;;;;0.70;0.70;;;;;;;7.89;100.00;95866.78;29395;226;63004;-57
2022/12/23 00:30:09;;;;;;;0.50;0.50;;;;;;;7.89;100.00;95860.56;29395;203;63005;-57
2022/12/23 00:30:49;;;;;;;0.50;0.50;;;;;;;7.84;100.00;95861.47;29395;274;63009;-67
2022/12/23 00:31:20;;;;;;;0.50;0.50;;;;;;;7.82;100.00;95863.66;29395;265;63005;-56
2022/12/23 00:31:54;;;;;;;0.50;0.50;;;;;;;7.80;100.00;95873.97;29395;210;63009;-57
2022/12/23 00:32:25;;;;;;;0.57;0.57;;;;;;;7.81;100.00;95859.38;29394;214;64009;-59
2022/12/23 00:32:57;;;;;;;0.50;0.50;;;;;;;7.81;100.00;95863.97;29395;214;63009;-57
2022/12/23 00:33:35;;;;;;;0.50;0.50;;;;;;;7.79;100.00;95858.88;29395;205;63005;-56
2022/12/23 00:34:06;;;;;;;0.50;0.50;;;;;;;7.77;100.00;95858.38;29395;210;63009;-57
2022/12/23 00:34:37;;;;;;;0.50;0.50;;;;;;;7.75;100.00;95860.56;29395;221;63004;-57
2022/12/23 00:35:08;;;;;;;0.50;0.50;;;;;;;7.73;100.00;95852.75;29395;211;63009;-58
2022/12/23 00:35:41;;;;;;;0.50;0.50;;;;;;;7.80;100.00;95863.16;29395;202;63011;-67
2022/12/23 00:36:32;;;;;;;0.55;0.55;;;;;;;7.79;100.00;95861.56;29395;256;63009;-57
2022/12/23 00:37:05;;;;;;;0.47;0.47;;;;;;;7.79;100.00;95858.88;29417;222;63004;-72
2022/12/23 00:37:36;;;;;;;0.50;0.50;;;;;;;7.75;100.00;95855.16;29394;212;64014;-57
2022/12/23 00:38:07;;;;;;;0.50;0.50;;;;;;;7.75;100.00;95860.56;29395;198;63005;-57
2022/12/23 00:42:59;;;;;;;0.50;0.50;;;;;;;7.79;100.00;95871.56;29395;197;63004;-57
2022/12/23 00:43:31;;;;;;;0.50;0.50;;;;;;;7.81;100.00;95880.97;29395;238;63015;-58
2022/12/23 00:44:03;;;;;;;0.55;0.55;;;;;;;7.80;100.00;95875.88;29395;197;63004;-67
2022/12/23 00:44:35;;;;;;;0.60;0.60;;;;;;;7.79;100.00;95869.66;29395;218;63008;-56
2022/12/23 00:45:16;;;;;;;0.50;0.50;;;;;;;7.79;100.00;95866.97;29394;229;64009;-57
2022/12/23 00:45:47;;;;;;;0.60;0.60;;;;;;;7.77;100.00;95876.47;29417;197;63009;-57
2022/12/23 00:46:18;;;;;;;0.50;0.50;;;;;;;7.75;100.00;95876.75;29395;257;63010;-67
2022/12/23 00:46:51;;;;;;;0.60;0.60;;;;;;;7.79;100.00;95869.66;29395;197;63009;-59
2022/12/23 00:49:51;;;;;;;0.50;0.50;;;;;;;7.78;100.00;95881.56;29395;248;63009;-56
2022/12/23 00:50:22;;;;;;;0.50;0.50;;;;;;;7.78;100.00;95881.56;29395;210;63008;-55
2022/12/23 00:50:57;;;;;;;0.50;0.50;;;;;;;7.75;100.00;95876.75;29395;273;63009;-58
2022/12/23 00:51:28;;;;;;;0.60;0.60;;;;;;;7.79;100.00;95883.16;29394;204;64009;-67
2022/12/23 00:52:01;;;;;;;0.60;0.60;;;;;;;7.84;100.00;95888.47;29395;197;63008;-67
2022/12/23 00:52:35;;;;;;;0.50;0.50;;;;;;;7.82;100.00;95877.19;29395;219;63014;-57
2022/12/23 00:53:06;;;;;;;0.50;0.50;;;;;;;7.84;100.00;95885.78;29395;197;63009;-59
2022/12/23 00:53:38;;;;;;;0.50;0.50;;;;;;;7.85;100.00;95881.97;29395;222;63005;-58
2022/12/23 00:54:10;;;;;;;0.47;0.47;;;;;;;7.84;100.00;95874.19;29395;257;63009;-57
2022/12/23 00:54:42;;;;;;;0.50;0.50;;;;;;;7.83;100.00;95881.47;29395;246;63005;-57
2022/12/23 00:55:13;;;;;;;0.60;0.60;;;;;;;7.84;100.00;95879.56;29394;197;64013;-67
2022/12/23 00:55:46;;;;;;;0.50;0.50;;;;;;;7.87;100.00;95884.38;29395;273;63005;-57
2022/12/23 00:56:17;;;;;;;0.47;0.47;;;;;;;7.88;100.00;95896.78;29395;210;63009;-57
2022/12/23 00:56:52;;;;;;;0.50;0.50;;;;;;;7.93;100.00;95891.28;29395;275;63004;-65
2022/12/23 00:57:24;;;;;;;0.50;0.50;;;;;;;7.93;100.00;95878.59;29395;222;63009;-56
2022/12/23 00:57:56;;;;;;;0.50;0.50;;;;;;;7.91;100.00;95897.00;29394;246;64009;-57
2022/12/23 00:58:27;;;;;;;0.40;0.40;;;;;;;7.88;100.00;95888.69;29395;233;63009;-57
2022/12/23 00:58:59;;;;;;;0.50;0.50;;;;;;;7.91;100.00;95901.59;29395;250;63004;-56
2022/12/23 00:59:32;;;;;;;0.50;0.50;;;;;;;7.88;100.00;95896.78;29395;213;63008;-56
2022/12/23 01:00:05;;;;;;;0.50;0.50;;;;;;;7.83;100.00;95894.97;29395;271;63004;-56
2022/12/23 01:05:49;;;;;;;0.50;0.50;;;;;;;7.89;100.00;95893.78;29395;221;63009;-56
2022/12/23 01:06:21;;;;;;;0.50;0.50;;;;;;;7.89;100.00;95893.78;29395;221;63004;-56
2022/12/23 01:06:52;;;;;;;0.50;0.50;;;;;;;7.89;100.00;95893.00;29395;271;63008;-57
2022/12/23 01:07:26;;;;;;;0.50;0.50;;;;;;;7.89;100.00;95899.19;29395;233;63004;-56
2022/12/23 01:07:57;;;;;;;0.50;0.50;;;;;;;7.87;100.00;95901.37;29395;220;63009;-69
2022/12/23 01:08:28;;;;;;;0.50;0.50;;;;;;;7.90;100.00;95906.19;29394;264;64009;-57
2022/12/23 01:08:59;;;;;;;0.50;0.50;;;;;;;7.92;100.00;95901.28;29395;253;63009;-57
2022/12/23 01:09:31;;;;;;;0.45;0.45;;;;;;;7.91;100.00;95912.41;29395;202;63005;-56
2022/12/23 01:10:03;;;;;;;0.57;0.57;;;;;;;7.90;100.00;95906.19;29395;223;63009;-56
2022/12/23 01:10:35;;;;;;;0.40;0.40;;;;;;;7.94;100.00;95907.19;29394;226;64009;-56
2022/12/23 01:11:10;;;;;;;0.50;0.50;;;;;;;7.96;100.00;95905.00;29395;263;63009;-67
2022/12/23 01:11:41;;;;;;;0.50;0.50;;;;;;;7.96;100.00;95902.31;29395;270;63004;-56
2022/12/23 01:12:13;;;;;;;0.50;0.50;;;;;;;7.97;100.00;95905.81;29395;239;63009;-58
2022/12/23 01:12:44;;;;;;;0.50;0.50;;;;;;;7.99;100.00;95909.78;29395;198;63004;-68
2022/12/23 01:13:15;;;;;;;0.50;0.50;;;;;;;7.98;100.00;95910.06;29395;195;63009;-56
2022/12/23 01:13:46;;;;;;;0.55;0.55;;;;;;;7.95;100.00;95908.81;29395;203;63004;-56
2022/12/23 01:14:18;;;;;;;0.50;0.50;;;;;;;7.97;100.00;95908.50;29395;196;63008;-57
2022/12/23 01:14:49;;;;;;;0.50;0.50;;;;;;;7.98;100.00;95908.16;29395;250;63005;-56
2022/12/23 01:15:20;;;;;;;0.60;0.60;;;;;;;7.96;100.00;95901.50;29395;235;63009;-56
2022/12/23 01:15:59;;;;;;;0.50;0.50;;;;;;;7.94;100.00;95912.59;29394;235;64009;-69
2022/12/23 01:16:30;;;;;;;0.50;0.50;;;;;;;7.94;100.00;95911.81;29395;236;63009;-56
2022/12/23 01:17:02;;;;;;;0.43;0.43;;;;;;;7.91;100.00;95918.59;29395;227;63000;-56
2022/12/23 01:17:33;;;;;;;0.50;0.50;;;;;;;7.90;100.00;95908.91;29395;251;63009;-69
2022/12/23 01:18:05;;;;;;;0.50;0.50;;;;;;;7.89;100.00;95915.41;29395;199;63005;-66
2022/12/23 01:18:41;;;;;;;0.60;0.60;;;;;;;7.89;100.00;95920.00;29395;231;63009;-57
2022/12/23 01:19:12;;;;;;;0.50;0.50;;;;;;;7.91;100.00;95907.00;29395;211;63004;-58
2022/12/23 01:19:44;;;;;;;0.50;0.50;;;;;;;7.93;100.00;95904.78;29395;202;63018;-56
2022/12/23 01:20:15;;;;;;;0.50;0.50;;;;;;;7.95;100.00;95916.91;29395;238;63004;-69
2022/12/23 01:20:48;;;;;;;0.50;0.50;;;;;;;7.95;100.00;95914.19;29394;220;64013;-56
2022/12/23 01:21:19;;;;;;;0.45;0.45;;;;;;;7.97;100.00;95922.00;29395;215;63004;-67
2022/12/23 01:21:50;;;;;;;0.50;0.50;;;;;;;7.99;100.00;95912.47;29394;236;64013;-65
2022/12/23 01:22:21;;;;;;;0.50;0.50;;;;;;;8.01;100.00;95928.38;29395;259;63005;-68
2022/12/23 01:22:53;;;;;;;0.50;0.50;;;;;;;8.03;100.00;95921.59;29395;232;63018;-56
2022/12/23 01:23:24;;;;;;;0.50;0.50;;;;;;;8.02;100.00;95919.19;29395;202;63005;-66
2022/12/23 01:23:56;;;;;;;0.50;0.50;;;;;;;7.99;100.00;95909.78;29395;226;63009;-56
2022/12/23 01:24:32;;;;;;;0.50;0.50;;;;;;;8.00;100.00;95911.38;29395;212;63005;-57
2022/12/23 01:25:04;;;;;;;0.50;0.50;;;;;;;8.07;100.00;95911.78;29394;244;64013;-58
2022/12/23 01:25:36;;;;;;;0.50;0.50;;;;;;;8.07;100.00;95911.78;29395;199;63000;-57
2022/12/23 01:26:08;;;;;;;0.40;0.40;;;;;;;8.07;100.00;95922.59;29395;265;63009;-64
2022/12/23 01:26:40;;;;;;;0.60;0.60;;;;;;;8.03;100.00;95921.59;29395;202;63004;-56
2022/12/23 01:27:14;;;;;;;0.50;0.50;;;;;;;8.02;100.00;95917.28;29395;274;63009;-56
2022/12/23 01:27:49;;;;;;;0.60;0.60;;;;;;;8.00;100.00;95919.47;29395;257;63008;-65
2022/12/23 01:28:20;;;;;;;0.50;0.50;;;;;;;8.03;100.00;95916.19;29395;210;63009;-56
2022/12/23 01:28:56;;;;;;;0.50;0.50;;;;;;;8.06;100.00;95918.28;29395;215;63004;-57
2022/12/23 01:29:27;;;;;;;0.50;0.50;;;;;;;8.03;100.00;95918.88;29395;197;63009;-56
2022/12/23 01:29:59;;;;;;;0.50;0.50;;;;;;;8.07;100.00;95916.37;29395;204;63005;-64
2022/12/23 01:30:30;;;;;;;0.50;0.50;;;;;;;8.05;100.00;95924.00;29394;203;64014;-57
2022/12/23 01:31:04;;;;;;;0.47;0.47;;;;;;;8.05;100.00;95924.78;29395;202;63005;-56
2022/12/23 01:31:35;;;;;;;0.50;0.50;;;;;;;8.04;100.00;95928.59;29395;251;63009;-56
2022/12/23 01:32:07;;;;;;;0.50;0.50;;;;;;;8.04;100.00;95933.19;29395;221;63005;-67
2022/12/23 01:32:38;;;;;;;0.50;0.50;;;;;;;8.04;100.00;95933.19;29395;222;63009;-56
2022/12/23 01:33:10;;;;;;;0.50;0.50;;;;;;;8.04;100.00;95938.59;29395;210;63005;-68
2022/12/23 01:33:44;;;;;;;0.50;0.50;;;;;;;8.06;100.00;95925.59;29395;239;63009;-69
2022/12/23 01:34:16;;;;;;;0.50;0.50;;;;;;;8.10;100.00;95932.00;29395;198;63004;-67
2022/12/23 01:34:47;;;;;;;0.50;0.50;;;;;;;8.11;100.00;95935.50;29394;265;64013;-67
2022/12/23 01:35:20;;;;;;;0.50;0.50;;;;;;;8.12;100.00;95931.69;29394;234;64009;-67
2022/12/23 01:35:58;;;;;;;0.50;0.50;;;;;;;8.15;100.00;95940.00;29395;204;63009;-68
2022/12/23 01:36:29;;;;;;;0.50;0.50;;;;;;;8.15;100.00;95934.59;29395;274;63004;-68
2022/12/23 01:37:02;;;;;;;0.50;0.50;;;;;;;8.18;100.00;95934.00;29394;222;64009;-63
2022/12/23 01:37:33;;;;;;;0.50;0.50;;;;;;;8.18;100.00;95933.22;29395;204;63005;-57
2022/12/23 01:38:07;;;;;;;0.50;0.50;;;;;;;8.17;100.00;95942.41;29395;202;63009;-58
2022/12/23 01:38:41;;;;;;;0.40;0.40;;;;;;;8.15;100.00;95939.22;29395;276;63005;-56
2022/12/23 01:39:13;;;;;;;0.50;0.50;;;;;;;8.12;100.00;95942.50;29394;204;64013;-69
2022/12/23 01:39:44;;;;;;;0.57;0.57;;;;;;;8.10;100.00;95936.59;29395;203;63005;-69
2022/12/23 01:40:16;;;;;;;0.50;0.50;;;;;;;8.10;100.00;95928.50;29395;219;63009;-56
2022/12/23 01:40:47;;;;;;;0.50;0.50;;;;;;;8.07;100.00;95938.81;29394;280;64009;-68
2022/12/23 01:43:19;;;;;;;0.50;0.50;;;;;;;8.19;100.00;95934.81;29394;242;64013;-65
2022/12/23 01:43:51;;;;;;;0.52;0.52;;;;;;;8.17;100.00;95937.00;29395;299;63004;-56
2022/12/23 01:44:54;;;;;;;0.50;0.50;;;;;;;8.20;100.00;95939.13;29395;226;63008;-66
2022/12/23 01:45:32;;;;;;;0.60;0.60;;;;;;;8.17;100.00;95943.22;29394;210;64014;-58
2022/12/23 01:46:04;;;;;;;0.50;0.50;;;;;;;8.15;100.00;95940.00;29395;242;63005;-67
2022/12/23 01:46:35;;;;;;;0.43;0.43;;;;;;;8.18;100.00;95944.00;29395;250;63009;-57
2022/12/23 01:47:12;;;;;;;0.50;0.50;;;;;;;8.24;100.00;95940.91;29395;216;63005;-70
2022/12/23 01:47:56;;;;;;;0.50;0.50;;;;;;;8.26;100.00;95941.41;29394;255;64013;-69
2022/12/23 01:48:30;;;;;;;0.50;0.50;;;;;;;8.26;100.00;95946.03;29394;234;64009;-68
2022/12/23 01:49:02;;;;;;;0.50;0.50;;;;;;;8.24;100.00;95948.22;29395;210;63009;-67
2022/12/23 01:49:33;;;;;;;0.50;0.50;;;;;;;8.26;100.00;95946.03;29395;212;63004;-57
2022/12/23 01:50:18;;;;;;;0.50;0.50;;;;;;;8.24;100.00;95948.22;29395;224;63009;-57
2022/12/23 01:51:01;;;;;;;0.60;0.60;;;;;;;8.21;100.00;95943.41;29395;218;63004;-68
2022/12/23 01:51:33;;;;;;;0.50;0.50;;;;;;;8.21;100.00;95943.41;29395;271;63008;-58
2022/12/23 01:52:04;;;;;;;0.50;0.50;;;;;;;8.23;100.00;95946.63;29395;254;63004;-70
2022/12/23 01:52:44;;;;;;;0.50;0.50;;;;;;;8.23;100.00;95946.63;29395;228;63009;-68
2022/12/23 01:53:23;;;;;;;0.50;0.50;;;;;;;8.25;100.00;95949.81;29394;236;64009;-69
2022/12/23 01:54:01;;;;;;;0.50;0.50;;;;;;;8.31;100.00;95946.72;29395;248;63009;-67
2022/12/23 01:54:34;;;;;;;0.50;0.50;;;;;;;8.30;100.00;95942.41;29394;239;64009;-57
2022/12/23 01:55:08;;;;;;;0.50;0.50;;;;;;;8.29;100.00;95940.03;29395;202;63009;-69
2022/12/23 01:56:04;;;;;;;0.50;0.50;;;;;;;8.25;100.00;95950.62;29394;245;64009;-56
2022/12/23 01:56:40;;;;;;;0.50;0.50;;;;;;;8.27;100.00;95953.84;29395;221;63009;-69
2022/12/23 01:57:11;;;;;;;0.50;0.50;;;;;;;8.28;100.00;95947.31;29395;216;63004;-65
2022/12/23 01:57:44;;;;;;;0.60;0.60;;;;;;;8.28;100.00;95958.12;29395;217;63009;-57
2022/12/23 01:58:27;;;;;;;0.50;0.50;;;;;;;8.28;100.00;95949.22;29395;247;63004;-69
2022/12/23 01:59:02;;;;;;;0.50;0.50;;;;;;;8.33;100.00;95951.84;29395;272;63014;-56
2022/12/23 02:03:43;;;;;;;0.50;0.50;;;;;;;8.30;100.00;95960.53;29395;221;63009;-56
2022/12/23 02:04:22;;;;;;;0.50;0.50;;;;;;;8.28;100.00;95957.34;29394;216;64009;-56
2022/12/23 02:04:54;;;;;;;0.50;0.50;;;;;;;8.28;100.00;95950.03;29394;197;64013;-70
2022/12/23 02:05:26;;;;;;;0.50;0.50;;;;;;;8.31;100.00;95959.44;29395;203;63004;-69
2022/12/23 02:09:15;;;;;;;0.50;0.50;;;;;;;8.36;100.00;95962.03;29394;285;64013;-69
2022/12/23 02:09:26;;;;;;;0.60;0.60;;;;;;;8.43;100.00;95967.84;29395;223;63009;-70
2022/12/23 02:09:58;;;;;;;0.50;0.50;;;;;;;8.39;100.00;95967.66;29394;221;64009;-69
2022/12/23 02:10:48;;;;;;;0.50;0.50;;;;;;;8.41;100.00;95970.06;29395;206;63009;-57
2022/12/23 02:11:49;;;;;;;0.60;0.60;;;;;;;8.41;100.00;95980.88;29395;204;63012;-67
2022/12/23 02:12:50;;;;;;;0.50;0.50;;;;;;;8.53;100.00;95970.38;29417;278;63009;-67
2022/12/23 02:16:17;;;;;;;0.50;0.50;;;;;;;8.50;100.00;95978.28;29395;203;63009;-67
2022/12/23 02:17:08;;;;;;;0.50;0.50;;;;;;;8.51;100.00;95990.69;29395;205;63005;-56
2022/12/23 02:18:11;;;;;;;0.50;0.50;;;;;;;8.49;100.00;95988.28;29395;213;63009;-58
2022/12/23 02:19:05;;;;;;;0.50;0.50;;;;;;;8.49;100.00;95982.06;29395;229;63004;-57
2022/12/23 02:20:17;;;;;;;0.50;0.50;;;;;;;8.47;100.00;95986.97;29395;198;63009;-57
2022/12/23 02:21:30;;;;;;;0.50;0.50;;;;;;;8.48;100.00;95992.09;29416;206;64013;-66
2022/12/23 02:22:39;;;;;;;;;;;;;;;8.53;100.00;95989.28;29996;982;6000;-57
2022/12/23 02:23:51;;;;;;;0.50;0.50;;;;;;;8.52;100.00;95993.09;29399;202;64009;-57
2022/12/23 02:25:03;;;;;;;0.55;0.55;;;;;;;8.54;100.00;95993.59;29417;198;63005;-58
2022/12/23 02:26:28;;;;;;;0.50;0.50;;;;;;;8.54;100.00;96004.41;29395;263;63009;-56
2022/12/23 02:27:13;;;;;;;0.60;0.60;;;;;;;8.54;100.00;96007.13;29395;201;63004;-57
2022/12/23 02:28:33;;;;;;;0.60;0.60;;;;;;;8.54;100.00;96001.69;29394;245;64013;-70
2022/12/23 02:30:02;;;;;;;0.50;0.50;;;;;;;8.62;100.00;96009.13;29395;237;63005;-59
2022/12/23 02:31:16;;;;;;;0.50;0.50;;;;;;;8.60;100.00;96002.41;29395;204;63009;-66
2022/12/23 02:32:22;;;;;;;0.40;0.40;;;;;;;8.59;100.00;95998.91;29395;205;63009;-66
2022/12/23 02:33:43;;;;;;;0.50;0.50;;;;;;;8.67;100.00;96000.06;29394;272;64013;-58
2022/12/23 02:35:00;;;;;;;0.60;0.60;;;;;;;8.72;100.00;96003.47;29395;271;63004;-67
2022/12/23 02:36:13;;;;;;;0.50;0.50;;;;;;;8.71;100.00;96007.28;29394;202;64013;-57
2022/12/23 02:37:17;;;;;;;0.50;0.50;;;;;;;8.73;100.00;96010.50;29417;243;63005;-58
2022/12/23 02:38:21;;;;;;;0.50;0.50;;;;;;;8.77;100.00;96001.78;29395;231;63009;-57
2022/12/23 02:39:17;;;;;;;0.50;0.50;;;;;;;8.72;100.00;96000.78;29395;202;63005;-57
2022/12/23 02:40:07;;;;;;;0.50;0.50;;;;;;;8.71;100.00;96011.88;29395;250;63009;-57
2022/12/23 02:41:13;;;;;;;0.50;0.50;;;;;;;8.70;100.00;96004.88;29394;203;64009;-56
2022/12/23 02:42:26;;;;;;;0.50;0.50;;;;;;;8.68;100.00;96007.09;29395;230;63009;-70
2022/12/23 02:43:30;;;;;;;0.60;0.60;;;;;;;8.71;100.00;96011.88;29416;272;64009;-57
2022/12/23 02:44:12;;;;;;;0.60;0.60;;;;;;;8.78;100.00;96006.87;29395;226;63008;-57
2022/12/23 02:44:57;;;;;;;0.50;0.50;;;;;;;8.77;100.00;96007.97;29394;198;64009;-64
2022/12/23 02:46:29;;;;;;;0.60;0.60;;;;;;;8.79;100.00;96004.97;29395;240;63009;-70
2022/12/23 02:47:12;;;;;;;0.50;0.50;;;;;;;8.74;100.00;96012.09;29395;310;63005;-69
2022/12/23 02:47:53;;;;;;;0.60;0.60;;;;;;;8.71;100.00;96006.47;29395;215;63024;-69
2022/12/23 02:48:53;;;;;;;0.60;0.60;;;;;;;8.69;100.00;96012.19;29417;273;63004;-57
2022/12/23 02:49:32;;;;;;;0.50;0.50;;;;;;;8.73;100.00;96015.91;29394;243;64013;-58
2022/12/23 02:50:11;;;;;;;0.50;0.50;;;;;;;8.74;100.00;96012.09;29395;232;63004;-57
2022/12/23 02:50:46;;;;;;;0.50;0.50;;;;;;;8.73;100.00;96018.59;29395;211;63009;-57
2022/12/23 02:51:23;;;;;;;0.50;0.50;;;;;;;8.72;100.00;96018.91;29395;218;63004;-70
2022/12/23 02:51:58;;;;;;;0.50;0.50;;;;;;;8.71;100.00;96017.31;29395;197;63017;-72
2022/12/23 02:52:31;;;;;;;0.50;0.50;;;;;;;8.69;100.00;96020.31;29395;403;63016;-73
2022/12/23 02:53:13;;;;;;;0.50;0.50;;;;;;;8.69;100.00;96017.59;29395;256;63016;-70
2022/12/23 02:53:54;;;;;;;0.50;0.50;;;;;;;8.70;100.00;96021.91;29395;259;63005;-68
2022/12/23 02:54:31;;;;;;;0.50;0.50;;;;;;;8.69;100.00;96020.31;29416;446;64013;-68
2022/12/23 02:55:08;;;;;;;0.50;0.50;;;;;;;8.68;100.00;96021.41;29395;304;63005;-69
2022/12/23 02:55:43;;;;;;;0.50;0.50;;;;;;;8.66;100.00;96020.91;29395;205;63009;-57
2022/12/23 02:56:17;;;;;;;0.50;0.50;;;;;;;8.68;100.00;96023.31;29394;216;64009;-70
2022/12/23 02:56:52;;;;;;;0.50;0.50;;;;;;;8.69;100.00;96024.91;29395;233;63009;-70
2022/12/23 02:57:31;;;;;;;0.50;0.50;;;;;;;8.68;100.00;96029.53;29395;328;63004;-70
2022/12/23 02:58:08;;;;;;;0.50;0.50;;;;;;;8.67;100.00;96027.91;29395;209;63009;-66
2022/12/23 02:58:50;;;;;;;0.50;0.50;;;;;;;8.70;100.00;96027.31;29395;236;63004;-71
2022/12/23 02:59:28;;;;;;;0.50;0.50;;;;;;;8.72;100.00;96040.53;29394;258;64014;-69
2022/12/23 03:00:02;;;;;;;0.50;0.50;;;;;;;8.68;100.00;96026.81;29394;222;64009;-69
2022/12/23 03:00:35;;;;;;;0.47;0.47;;;;;;;8.67;100.00;96033.31;29395;203;63005;-71
2022/12/23 03:01:09;;;;;;;0.50;0.50;;;;;;;8.68;100.00;96034.12;29395;202;63005;-70
2022/12/23 03:01:42;;;;;;;0.50;0.50;;;;;;;8.66;100.00;96037.13;29394;239;64013;-72
2022/12/23 03:02:14;;;;;;;0.50;0.50;;;;;;;8.70;100.00;96035.44;29395;259;63005;-58
2022/12/23 03:02:48;;;;;;;0.50;0.50;;;;;;;8.71;100.00;96034.34;29394;207;64013;-68
2022/12/23 03:03:25;;;;;;;0.50;0.50;;;;;;;8.72;100.00;96035.94;29394;228;64009;-68
2022/12/23 03:03:56;;;;;;;0.50;0.50;;;;;;;8.71;100.00;96034.34;29395;212;63017;-69
2022/12/23 03:04:30;;;;;;;0.50;0.50;;;;;;;8.70;100.00;96043.53;29395;261;63004;-72
2022/12/23 03:05:02;;;;;;;0.50;0.50;;;;;;;8.70;100.00;96034.62;29395;251;63009;-56
2022/12/23 03:05:41;;;;;;;0.60;0.60;;;;;;;8.69;100.00;96039.25;29395;265;63004;-71
2022/12/23 03:06:32;;;;;;;0.50;0.50;;;;;;;8.69;100.00;96041.12;29417;202;63008;-71
2022/12/23 03:07:05;;;;;;;0.50;0.50;;;;;;;8.68;100.00;96048.44;29395;271;63005;-68
2022/12/23 03:07:42;;;;;;;0.50;0.50;;;;;;;8.70;100.00;96046.25;29394;213;64014;-69
2022/12/23 03:08:28;;;;;;;0.50;0.50;;;;;;;8.71;100.00;96039.75;29395;240;63001;-71
2022/12/23 03:09:00;;;;;;;0.50;0.50;;;;;;;8.72;100.00;96045.94;29394;262;64013;-69
2022/12/23 03:10:11;;;;;;;0.50;0.50;;;;;;;8.72;100.00;96041.34;29395;280;63005;-71
2022/12/23 03:11:07;;;;;;;0.50;0.50;;;;;;;8.77;100.00;96047.75;29395;228;63009;-65
2022/12/23 03:12:02;;;;;;;0.50;0.50;;;;;;;8.79;100.00;96046.34;29394;270;64009;-70
2022/12/23 03:13:19;;;;;;;0.50;0.50;;;;;;;8.78;100.00;96049.34;29395;197;63019;-71
2022/12/23 03:14:39;;;;;;;0.40;0.40;;;;;;;8.75;100.00;96050.75;29394;215;64008;-57
2022/12/23 03:15:37;;;;;;;0.50;0.50;;;;;;;8.71;100.00;96045.16;29395;218;63009;-57
2022/12/23 03:16:22;;;;;;;0.50;0.50;;;;;;;8.69;100.00;96041.94;29395;202;63009;-71
2022/12/23 03:17:32;;;;;;;0.60;0.60;;;;;;;8.69;100.00;96041.94;29395;213;63005;-69
2022/12/23 03:18:51;;;;;;;0.50;0.50;;;;;;;8.74;100.00;96044.53;29395;257;63009;-68
2022/12/23 03:19:32;;;;;;;0.60;0.60;;;;;;;8.73;100.00;96045.66;29394;239;64009;-71
2022/12/23 03:20:54;;;;;;;0.50;0.50;;;;;;;8.70;100.00;96048.97;29377;251;125017;-72
2022/12/23 03:21:54;;;;;;;0.60;0.60;;;;;;;8.68;100.00;96056.56;29395;215;63000;-70
2022/12/23 03:22:39;;;;;;;0.50;0.50;;;;;;;8.66;100.00;96053.34;29395;205;63005;-57
2022/12/23 03:23:25;;;;;;;0.50;0.50;;;;;;;8.64;100.00;96050.19;29395;235;63000;-69
2022/12/23 03:24:39;;;;;;;0.50;0.50;;;;;;;8.63;100.00;96051.28;29395;204;63005;-71
2022/12/23 03:25:22;;;;;;;0.50;0.50;;;;;;;8.61;100.00;96056.19;29394;207;64009;-71
2022/12/23 03:26:13;;;;;;;0.57;0.57;;;;;;;8.63;100.00;96054.00;29395;265;63016;-71
2022/12/23 03:27:07;;;;;;;0.60;0.60;;;;;;;8.62;100.00;96060.50;29417;198;63004;-69
2022/12/23 03:27:51;;;;;;;0.55;0.55;;;;;;;8.64;100.00;96055.59;29395;211;63009;-70
2022/12/23 03:28:49;;;;;;;0.50;0.50;;;;;;;8.64;100.00;96061.00;29395;247;63004;-71
2022/12/23 03:29:31;;;;;;;0.60;0.60;;;;;;;8.62;100.00;96055.09;29395;244;63009;-70
2022/12/23 03:30:13;;;;;;;0.43;0.43;;;;;;;8.62;100.00;96059.69;29395;232;63005;-74
2022/12/23 03:30:50;;;;;;;0.50;0.50;;;;;;;8.64;100.00;96063.69;29394;202;64013;-68
2022/12/23 03:31:29;;;;;;;0.50;0.50;;;;;;;8.64;100.00;96069.13;29395;216;63005;-71
2022/12/23 03:32:04;;;;;;;0.52;0.52;;;;;;;8.64;100.00;96063.69;29395;207;63009;-70
2022/12/23 03:32:45;;;;;;;0.50;0.50;;;;;;;8.65;100.00;96057.19;29395;196;63005;-70
2022/12/23 03:33:21;;;;;;;0.60;0.60;;;;;;;8.64;100.00;96069.13;29417;248;63009;-73
2022/12/23 03:34:01;;;;;;;0.60;0.60;;;;;;;8.64;100.00;96065.59;29395;232;63004;-70
2022/12/23 03:34:36;;;;;;;0.57;0.57;;;;;;;8.68;100.00;96059.28;29439;225;63009;-72
2022/12/23 03:35:11;;;;;;;0.50;0.50;;;;;;;8.69;100.00;96063.56;29373;222;63009;-70